Time;durP1;ratioP1;P1;durP2;ratioP2;P2;SDS_P1;SDS_P2;PMS_P1;PMS_P2;Temp;Humidity;BMP_temperature;BMP_pressure;BME280_temperature;BME280_humidity;BME280_pressure;Samples;Min_cycle;Max_cycle;Signal;HPM_P1;HPM_P2
2020/05/14 00:00:40;;;;;;;54.2;35.25001;;;;;;;8.12;98.03223;94515.37;;;;
2020/05/14 00:01:46;;;;;;;54.2;35.25001;;;;;;;8.12;98.03223;94515.37;;;;
2020/05/14 00:02:50;;;;;;;53.24999;34.25;;;;;;;8.07;98.43164;94530.17;;;;
2020/05/14 00:03:57;;;;;;;53.24999;34.25;;;;;;;8.07;98.43164;94530.17;;;;
2020/05/14 00:05:11;;;;;;;53.24999;34.25;;;;;;;8.07;98.43164;94530.17;;;;
2020/05/14 00:06:18;;;;;;;53.24999;34.25;;;;;;;8.07;98.43164;94530.17;;;;
2020/05/14 00:07:20;;;;;;;53.24999;34.25;;;;;;;8.07;98.43164;94530.17;;;;
2020/05/14 00:08:21;;;;;;;53.24999;34.25;;;;;;;8.07;98.43164;94530.17;;;;
2020/05/14 00:09:34;;;;;;;53.24999;34.25;;;;;;;8.07;98.43164;94530.17;;;;
2020/05/14 00:10:34;;;;;;;53.24999;34.25;;;;;;;8.07;98.43164;94530.17;;;;
2020/05/14 00:11:37;;;;;;;53.24999;34.25;;;;;;;8.07;98.43164;94530.17;;;;
2020/05/14 00:12:38;;;;;;;53.24999;34.25;;;;;;;8.07;98.43164;94530.17;;;;
2020/05/14 00:13:38;;;;;;;46.25;28.8;;;;;;;8.05;98.68262;94555.03;;;;
2020/05/14 00:14:41;;;;;;;46.25;28.8;;;;;;;8.05;98.68262;94555.03;;;;
2020/05/14 00:15:42;;;;;;;46.25;28.8;;;;;;;8.05;98.68262;94555.03;;;;
2020/05/14 00:16:42;;;;;;;46.25;28.8;;;;;;;8.05;98.68262;94555.03;;;;
2020/05/14 00:17:43;;;;;;;46.25;28.8;;;;;;;8.05;98.68262;94555.03;;;;
2020/05/14 00:18:43;;;;;;;46.25;28.8;;;;;;;8.05;98.68262;94555.03;;;;
2020/05/14 00:19:47;;;;;;;46.25;28.8;;;;;;;8.05;98.68262;94555.03;;;;
2020/05/14 00:20:47;;;;;;;46.25;28.8;;;;;;;8.05;98.68262;94555.03;;;;
2020/05/14 00:21:48;;;;;;;46.25;28.8;;;;;;;8.05;98.68262;94555.03;;;;
2020/05/14 00:22:49;;;;;;;46.25;28.8;;;;;;;8.05;98.68262;94555.03;;;;
2020/05/14 00:23:49;;;;;;;48.85;29.7;;;;;;;7.99;98.73145;94566.72;;;;
2020/05/14 00:24:50;;;;;;;48.85;29.7;;;;;;;7.99;98.73145;94566.72;;;;
2020/05/14 00:25:50;;;;;;;48.85;29.7;;;;;;;7.99;98.73145;94566.72;;;;
2020/05/14 00:26:52;;;;;;;48.85;29.7;;;;;;;7.99;98.73145;94566.72;;;;
2020/05/14 00:27:57;;;;;;;48.85;29.7;;;;;;;7.99;98.73145;94566.72;;;;
2020/05/14 00:29:07;;;;;;;48.85;29.7;;;;;;;7.99;98.73145;94566.72;;;;
2020/05/14 00:30:10;;;;;;;48.85;29.7;;;;;;;7.99;98.73145;94566.72;;;;
2020/05/14 00:31:11;;;;;;;48.85;29.7;;;;;;;7.99;98.73145;94566.72;;;;
2020/05/14 00:32:12;;;;;;;48.85;29.7;;;;;;;7.99;98.73145;94566.72;;;;
2020/05/14 00:33:13;;;;;;;48.85;29.7;;;;;;;7.99;98.73145;94566.72;;;;
2020/05/14 00:34:19;;;;;;;46.35;28.7;;;;;;;7.99;98.95313;94592.78;;;;
2020/05/14 00:35:19;;;;;;;46.35;28.7;;;;;;;7.99;98.95313;94592.78;;;;
2020/05/14 00:36:20;;;;;;;46.35;28.7;;;;;;;7.99;98.95313;94592.78;;;;
2020/05/14 00:37:23;;;;;;;46.35;28.7;;;;;;;7.99;98.95313;94592.78;;;;
2020/05/14 00:38:24;;;;;;;46.35;28.7;;;;;;;7.99;98.95313;94592.78;;;;
2020/05/14 00:39:35;;;;;;;46.35;28.7;;;;;;;7.99;98.95313;94592.78;;;;
2020/05/14 00:40:37;;;;;;;46.35;28.7;;;;;;;7.99;98.95313;94592.78;;;;
2020/05/14 00:41:37;;;;;;;46.35;28.7;;;;;;;7.99;98.95313;94592.78;;;;
2020/05/14 00:42:37;;;;;;;46.35;28.7;;;;;;;7.99;98.95313;94592.78;;;;
2020/05/14 00:43:38;;;;;;;46.35;28.7;;;;;;;7.99;98.95313;94592.78;;;;
2020/05/14 00:44:38;;;;;;;46.35;28.7;;;;;;;7.99;98.95313;94592.78;;;;
2020/05/14 00:45:40;;;;;;;39.9;26.4;;;;;;;7.89;98.94238;94596.5;;;;
2020/05/14 00:46:40;;;;;;;39.9;26.4;;;;;;;7.89;98.94238;94596.5;;;;
2020/05/14 00:47:45;;;;;;;39.9;26.4;;;;;;;7.89;98.94238;94596.5;;;;
2020/05/14 00:48:45;;;;;;;39.9;26.4;;;;;;;7.89;98.94238;94596.5;;;;
2020/05/14 00:49:46;;;;;;;39.9;26.4;;;;;;;7.89;98.94238;94596.5;;;;
2020/05/14 00:50:47;;;;;;;39.9;26.4;;;;;;;7.89;98.94238;94596.5;;;;
2020/05/14 00:51:47;;;;;;;39.9;26.4;;;;;;;7.89;98.94238;94596.5;;;;
2020/05/14 00:52:48;;;;;;;39.9;26.4;;;;;;;7.89;98.94238;94596.5;;;;
2020/05/14 00:53:49;;;;;;;39.9;26.4;;;;;;;7.89;98.94238;94596.5;;;;
2020/05/14 00:54:50;;;;;;;39.9;26.4;;;;;;;7.89;98.94238;94596.5;;;;
2020/05/14 00:55:50;;;;;;;31.65;23.15;;;;;;;7.85;99.12109;94603.5;;;;
2020/05/14 00:56:50;;;;;;;31.65;23.15;;;;;;;7.85;99.12109;94603.5;;;;
2020/05/14 00:57:51;;;;;;;31.65;23.15;;;;;;;7.85;99.12109;94603.5;;;;
2020/05/14 00:58:52;;;;;;;31.65;23.15;;;;;;;7.85;99.12109;94603.5;;;;
2020/05/14 00:59:53;;;;;;;31.65;23.15;;;;;;;7.85;99.12109;94603.5;;;;
2020/05/14 01:00:54;;;;;;;31.65;23.15;;;;;;;7.85;99.12109;94603.5;;;;
2020/05/14 01:02:10;;;;;;;31.65;23.15;;;;;;;7.85;99.12109;94603.5;;;;
2020/05/14 01:03:15;;;;;;;31.65;23.15;;;;;;;7.85;99.12109;94603.5;;;;
2020/05/14 01:04:27;;;;;;;31.65;23.15;;;;;;;7.85;99.12109;94603.5;;;;
2020/05/14 01:05:32;;;;;;;31.65;23.15;;;;;;;7.85;99.12109;94603.5;;;;
2020/05/14 01:06:37;;;;;;;31.5;22.7;;;;;;;7.74;99.13965;94611.86;;;;
2020/05/14 01:07:40;;;;;;;31.5;22.7;;;;;;;7.74;99.13965;94611.86;;;;
2020/05/14 01:08:41;;;;;;;31.5;22.7;;;;;;;7.74;99.13965;94611.86;;;;
2020/05/14 01:09:44;;;;;;;31.5;22.7;;;;;;;7.74;99.13965;94611.86;;;;
2020/05/14 01:10:46;;;;;;;31.5;22.7;;;;;;;7.74;99.13965;94611.86;;;;
2020/05/14 01:11:46;;;;;;;31.5;22.7;;;;;;;7.74;99.13965;94611.86;;;;
2020/05/14 01:12:48;;;;;;;31.5;22.7;;;;;;;7.74;99.13965;94611.86;;;;
2020/05/14 01:13:49;;;;;;;31.5;22.7;;;;;;;7.74;99.13965;94611.86;;;;
2020/05/14 01:14:50;;;;;;;31.5;22.7;;;;;;;7.74;99.13965;94611.86;;;;
2020/05/14 01:15:51;;;;;;;31.5;22.7;;;;;;;7.74;99.13965;94611.86;;;;
2020/05/14 01:16:56;;;;;;;25.5;19.1;;;;;;;7.69;99.43555;94632.32;;;;
2020/05/14 01:18:01;;;;;;;25.5;19.1;;;;;;;7.69;99.43555;94632.32;;;;
2020/05/14 01:19:04;;;;;;;25.5;19.1;;;;;;;7.69;99.43555;94632.32;;;;
2020/05/14 01:20:08;;;;;;;25.5;19.1;;;;;;;7.69;99.43555;94632.32;;;;
2020/05/14 01:21:10;;;;;;;25.5;19.1;;;;;;;7.69;99.43555;94632.32;;;;
2020/05/14 01:22:11;;;;;;;25.5;19.1;;;;;;;7.69;99.43555;94632.32;;;;
2020/05/14 01:23:11;;;;;;;25.5;19.1;;;;;;;7.69;99.43555;94632.32;;;;
2020/05/14 01:24:42;;;;;;;25.5;19.1;;;;;;;7.69;99.43555;94632.32;;;;
2020/05/14 01:25:42;;;;;;;25.5;19.1;;;;;;;7.69;99.43555;94632.32;;;;
2020/05/14 01:26:43;;;;;;;25.5;19.1;;;;;;;7.69;99.43555;94632.32;;;;
2020/05/14 01:27:47;;;;;;;17.45;14.2;;;;;;;7.58;99.53613;94632.72;;;;
2020/05/14 01:28:52;;;;;;;17.45;14.2;;;;;;;7.58;99.53613;94632.72;;;;
2020/05/14 01:29:52;;;;;;;17.45;14.2;;;;;;;7.58;99.53613;94632.72;;;;
2020/05/14 01:30:54;;;;;;;17.45;14.2;;;;;;;7.58;99.53613;94632.72;;;;
2020/05/14 01:31:54;;;;;;;17.45;14.2;;;;;;;7.58;99.53613;94632.72;;;;
2020/05/14 01:32:55;;;;;;;17.45;14.2;;;;;;;7.58;99.53613;94632.72;;;;
2020/05/14 01:33:56;;;;;;;17.45;14.2;;;;;;;7.58;99.53613;94632.72;;;;
2020/05/14 01:35:00;;;;;;;17.45;14.2;;;;;;;7.58;99.53613;94632.72;;;;
2020/05/14 01:36:01;;;;;;;17.45;14.2;;;;;;;7.58;99.53613;94632.72;;;;
2020/05/14 01:37:02;;;;;;;17.45;14.2;;;;;;;7.58;99.53613;94632.72;;;;
2020/05/14 01:38:03;;;;;;;17.5;13.75;;;;;;;7.55;99.85449;94647.14;;;;
2020/05/14 01:39:06;;;;;;;17.5;13.75;;;;;;;7.55;99.85449;94647.14;;;;
2020/05/14 01:40:21;;;;;;;17.5;13.75;;;;;;;7.55;99.85449;94647.14;;;;
2020/05/14 01:41:22;;;;;;;17.5;13.75;;;;;;;7.55;99.85449;94647.14;;;;
2020/05/14 01:42:36;;;;;;;17.5;13.75;;;;;;;7.55;99.85449;94647.14;;;;
2020/05/14 01:44:51;;;;;;;17.5;13.75;;;;;;;7.55;99.85449;94647.14;;;;
2020/05/14 01:45:58;;;;;;;17.5;13.75;;;;;;;7.55;99.85449;94647.14;;;;
2020/05/14 01:48:10;;;;;;;17.5;13.75;;;;;;;7.55;99.85449;94647.14;;;;
2020/05/14 01:49:16;;;;;;;17.4;13.35;;;;;;;7.47;99.87891;94669.37;;;;
2020/05/14 01:50:30;;;;;;;17.4;13.35;;;;;;;7.47;99.87891;94669.37;;;;
2020/05/14 01:51:36;;;;;;;17.4;13.35;;;;;;;7.47;99.87891;94669.37;;;;
2020/05/14 01:52:38;;;;;;;17.4;13.35;;;;;;;7.47;99.87891;94669.37;;;;
2020/05/14 01:57:03;;;;;;;17.4;13.35;;;;;;;7.47;99.87891;94669.37;;;;
2020/05/14 01:58:03;;;;;;;17.4;13.35;;;;;;;7.47;99.87891;94669.37;;;;
2020/05/14 01:59:04;;;;;;;17.9;14.9;;;;;;;7.47;100;94669.37;;;;
2020/05/14 02:00:04;;;;;;;17.9;14.9;;;;;;;7.47;100;94669.37;;;;
2020/05/14 02:01:04;;;;;;;17.9;14.9;;;;;;;7.47;100;94669.37;;;;
2020/05/14 02:02:05;;;;;;;17.9;14.9;;;;;;;7.47;100;94669.37;;;;
2020/05/14 02:03:06;;;;;;;17.9;14.9;;;;;;;7.47;100;94669.37;;;;
2020/05/14 02:04:06;;;;;;;17.9;14.9;;;;;;;7.47;100;94669.37;;;;
2020/05/14 02:05:08;;;;;;;17.9;14.9;;;;;;;7.47;100;94669.37;;;;
2020/05/14 02:06:10;;;;;;;17.9;14.9;;;;;;;7.47;100;94669.37;;;;
2020/05/14 02:07:11;;;;;;;17.9;14.9;;;;;;;7.47;100;94669.37;;;;
2020/05/14 02:08:11;;;;;;;17.9;14.9;;;;;;;7.47;100;94669.37;;;;
2020/05/14 02:09:12;;;;;;;17.9;14.9;;;;;;;7.47;100;94669.37;;;;
2020/05/14 02:10:19;;;;;;;20.15;17.25;;;;;;;7.4;100;94680.65;;;;
2020/05/14 02:11:29;;;;;;;20.15;17.25;;;;;;;7.4;100;94680.65;;;;
2020/05/14 02:12:41;;;;;;;20.15;17.25;;;;;;;7.4;100;94680.65;;;;
2020/05/14 02:13:49;;;;;;;20.15;17.25;;;;;;;7.4;100;94680.65;;;;
2020/05/14 02:15:20;;;;;;;20.15;17.25;;;;;;;7.4;100;94680.65;;;;
2020/05/14 02:16:35;;;;;;;20.15;17.25;;;;;;;7.4;100;94680.65;;;;
2020/05/14 02:18:52;;;;;;;20.15;17.25;;;;;;;7.4;100;94680.65;;;;
2020/05/14 02:20:06;;;;;;;20.15;17.25;;;;;;;7.4;100;94680.65;;;;
2020/05/14 02:21:15;;;;;;;23.1;18.05;;;;;;;7.43;100;94680.69;;;;
2020/05/14 02:22:23;;;;;;;23.1;18.05;;;;;;;7.43;100;94680.69;;;;
2020/05/14 02:23:50;;;;;;;23.1;18.05;;;;;;;7.43;100;94680.69;;;;
2020/05/14 02:24:50;;;;;;;23.1;18.05;;;;;;;7.43;100;94680.69;;;;
2020/05/14 02:25:52;;;;;;;23.1;18.05;;;;;;;7.43;100;94680.69;;;;
2020/05/14 02:26:52;;;;;;;23.1;18.05;;;;;;;7.43;100;94680.69;;;;
2020/05/14 02:27:53;;;;;;;23.1;18.05;;;;;;;7.43;100;94680.69;;;;
2020/05/14 02:28:53;;;;;;;23.1;18.05;;;;;;;7.43;100;94680.69;;;;
2020/05/14 02:29:54;;;;;;;23.1;18.05;;;;;;;7.43;100;94680.69;;;;
2020/05/14 02:30:55;;;;;;;23.1;18.05;;;;;;;7.43;100;94680.69;;;;
2020/05/14 02:31:55;;;;;;;23.1;18.05;;;;;;;7.43;100;94680.69;;;;
2020/05/14 02:32:55;;;;;;;23.1;18.05;;;;;;;7.43;100;94680.69;;;;
2020/05/14 02:33:56;;;;;;;23.1;18.05;;;;;;;7.43;100;94680.69;;;;
2020/05/14 02:34:56;;;;;;;23.1;18.05;;;;;;;7.43;100;94680.69;;;;
2020/05/14 02:35:57;;;;;;;23.1;18.05;;;;;;;7.43;100;94680.69;;;;
2020/05/14 02:36:57;;;;;;;23.1;18.05;;;;;;;7.43;100;94680.69;;;;
2020/05/14 02:37:58;;;;;;;23.1;18.05;;;;;;;7.43;100;94680.69;;;;
2020/05/14 02:38:58;;;;;;;23.1;18.05;;;;;;;7.43;100;94680.69;;;;
2020/05/14 02:39:59;;;;;;;23.1;18.05;;;;;;;7.43;100;94680.69;;;;
2020/05/14 02:40:59;;;;;;;23.1;18.05;;;;;;;7.43;100;94680.69;;;;
2020/05/14 02:42:00;;;;;;;25.9;20.8;;;;;;;7.43;100;94686.47;;;;
2020/05/14 02:43:00;;;;;;;25.9;20.8;;;;;;;7.43;100;94686.47;;;;
2020/05/14 02:44:00;;;;;;;25.9;20.8;;;;;;;7.43;100;94686.47;;;;
2020/05/14 02:45:01;;;;;;;25.9;20.8;;;;;;;7.43;100;94686.47;;;;
2020/05/14 02:46:03;;;;;;;25.9;20.8;;;;;;;7.43;100;94686.47;;;;
2020/05/14 02:47:05;;;;;;;25.9;20.8;;;;;;;7.43;100;94686.47;;;;
2020/05/14 02:48:06;;;;;;;25.9;20.8;;;;;;;7.43;100;94686.47;;;;
2020/05/14 02:49:07;;;;;;;25.9;20.8;;;;;;;7.43;100;94686.47;;;;
2020/05/14 02:50:07;;;;;;;25.9;20.8;;;;;;;7.43;100;94686.47;;;;
2020/05/14 02:51:07;;;;;;;25.9;20.8;;;;;;;7.43;100;94686.47;;;;
2020/05/14 02:52:08;;;;;;;25.9;20.8;;;;;;;7.43;100;94686.47;;;;
2020/05/14 02:53:08;;;;;;;26.9;21.15;;;;;;;7.29;100;94695.79;;;;
2020/05/14 02:54:09;;;;;;;26.9;21.15;;;;;;;7.29;100;94695.79;;;;
2020/05/14 02:55:09;;;;;;;26.9;21.15;;;;;;;7.29;100;94695.79;;;;
2020/05/14 02:56:09;;;;;;;26.9;21.15;;;;;;;7.29;100;94695.79;;;;
2020/05/14 02:57:10;;;;;;;26.9;21.15;;;;;;;7.29;100;94695.79;;;;
2020/05/14 02:58:21;;;;;;;26.9;21.15;;;;;;;7.29;100;94695.79;;;;
2020/05/14 02:59:32;;;;;;;26.9;21.15;;;;;;;7.29;100;94695.79;;;;
2020/05/14 03:00:39;;;;;;;26.9;21.15;;;;;;;7.29;100;94695.79;;;;
2020/05/14 03:01:56;;;;;;;26.9;21.15;;;;;;;7.29;100;94695.79;;;;
2020/05/14 03:03:19;;;;;;;28.3;21.2;;;;;;;7.27;100;94712.66;;;;
2020/05/14 03:04:44;;;;;;;28.3;21.2;;;;;;;7.27;100;94712.66;;;;
2020/05/14 03:06:09;;;;;;;28.3;21.2;;;;;;;7.27;100;94712.66;;;;
2020/05/14 03:07:31;;;;;;;28.3;21.2;;;;;;;7.27;100;94712.66;;;;
2020/05/14 03:08:38;;;;;;;28.3;21.2;;;;;;;7.27;100;94712.66;;;;
2020/05/14 03:09:38;;;;;;;28.3;21.2;;;;;;;7.27;100;94712.66;;;;
2020/05/14 03:10:39;;;;;;;28.3;21.2;;;;;;;7.27;100;94712.66;;;;
2020/05/14 03:11:40;;;;;;;28.3;21.2;;;;;;;7.27;100;94712.66;;;;
2020/05/14 03:12:40;;;;;;;28.3;21.2;;;;;;;7.27;100;94712.66;;;;
2020/05/14 03:13:41;;;;;;;29.05;22;;;;;;;7.22;100;94715.73;;;;
2020/05/14 03:14:41;;;;;;;29.05;22;;;;;;;7.22;100;94715.73;;;;
2020/05/14 03:15:42;;;;;;;29.05;22;;;;;;;7.22;100;94715.73;;;;
2020/05/14 03:16:42;;;;;;;29.05;22;;;;;;;7.22;100;94715.73;;;;
2020/05/14 03:17:43;;;;;;;29.05;22;;;;;;;7.22;100;94715.73;;;;
2020/05/14 03:18:44;;;;;;;29.05;22;;;;;;;7.22;100;94715.73;;;;
2020/05/14 03:19:44;;;;;;;29.05;22;;;;;;;7.22;100;94715.73;;;;
2020/05/14 03:20:45;;;;;;;29.05;22;;;;;;;7.22;100;94715.73;;;;
2020/05/14 03:21:45;;;;;;;29.05;22;;;;;;;7.22;100;94715.73;;;;
2020/05/14 03:22:46;;;;;;;29.05;22;;;;;;;7.22;100;94715.73;;;;
2020/05/14 03:24:53;;;;;;;29.05;22;;;;;;;7.22;100;94715.73;;;;
2020/05/14 03:26:12;;;;;;;26.4;20.7;;;;;;;7.25;100;94704.42;;;;
2020/05/14 03:32:28;;;;;;;26.4;20.7;;;;;;;7.25;100;94704.42;;;;
2020/05/14 03:33:29;;;;;;;26.4;20.7;;;;;;;7.25;100;94704.42;;;;
2020/05/14 03:34:29;;;;;;;26.4;20.7;;;;;;;7.25;100;94704.42;;;;
2020/05/14 03:35:29;;;;;;;26.1;20.75;;;;;;;7.2;100;94718.24;;;;
2020/05/14 03:36:30;;;;;;;26.1;20.75;;;;;;;7.2;100;94718.24;;;;
2020/05/14 03:37:30;;;;;;;26.1;20.75;;;;;;;7.2;100;94718.24;;;;
2020/05/14 03:38:31;;;;;;;26.1;20.75;;;;;;;7.2;100;94718.24;;;;
2020/05/14 03:39:31;;;;;;;26.1;20.75;;;;;;;7.2;100;94718.24;;;;
2020/05/14 03:40:34;;;;;;;26.1;20.75;;;;;;;7.2;100;94718.24;;;;
2020/05/14 03:41:37;;;;;;;26.1;20.75;;;;;;;7.2;100;94718.24;;;;
2020/05/14 03:52:56;;;;;;;27.45;21.15;;;;;;;7.21;100;94724.71;;;;
2020/05/14 03:53:58;;;;;;;27.45;21.15;;;;;;;7.21;100;94724.71;;;;
2020/05/14 03:55:00;;;;;;;27.45;21.15;;;;;;;7.21;100;94724.71;;;;
2020/05/14 03:56:01;;;;;;;26.20001;21.1;;;;;;;7.18;100;94737.39;;;;
2020/05/14 03:57:02;;;;;;;26.20001;21.1;;;;;;;7.18;100;94737.39;;;;
2020/05/14 03:58:02;;;;;;;26.20001;21.1;;;;;;;7.18;100;94737.39;;;;
2020/05/14 03:59:13;;;;;;;26.20001;21.1;;;;;;;7.18;100;94737.39;;;;
2020/05/14 04:00:14;;;;;;;26.20001;21.1;;;;;;;7.18;100;94737.39;;;;
2020/05/14 04:05:15;;;;;;;26.20001;21.1;;;;;;;7.18;100;94737.39;;;;
2020/05/14 04:06:15;;;;;;;26.20001;21.1;;;;;;;7.18;100;94737.39;;;;
2020/05/14 04:07:18;;;;;;;24.05;19.75;;;;;;;7.25;100;94754.1;;;;
2020/05/14 04:08:18;;;;;;;24.05;19.75;;;;;;;7.25;100;94754.1;;;;
2020/05/14 04:09:19;;;;;;;24.05;19.75;;;;;;;7.25;100;94754.1;;;;
2020/05/14 04:10:19;;;;;;;24.05;19.75;;;;;;;7.25;100;94754.1;;;;
2020/05/14 04:11:19;;;;;;;24.05;19.75;;;;;;;7.25;100;94754.1;;;;
2020/05/14 04:12:21;;;;;;;24.05;19.75;;;;;;;7.25;100;94754.1;;;;
2020/05/14 04:13:21;;;;;;;24.05;19.75;;;;;;;7.25;100;94754.1;;;;
2020/05/14 04:14:22;;;;;;;24.05;19.75;;;;;;;7.25;100;94754.1;;;;
2020/05/14 04:15:22;;;;;;;24.05;19.75;;;;;;;7.25;100;94754.1;;;;
2020/05/14 04:16:23;;;;;;;24.05;19.75;;;;;;;7.25;100;94754.1;;;;
2020/05/14 04:17:23;;;;;;;24.9;20.4;;;;;;;7.26;100;94752.64;;;;
2020/05/14 04:18:23;;;;;;;24.9;20.4;;;;;;;7.26;100;94752.64;;;;
2020/05/14 04:19:25;;;;;;;24.9;20.4;;;;;;;7.26;100;94752.64;;;;
2020/05/14 04:20:25;;;;;;;24.9;20.4;;;;;;;7.26;100;94752.64;;;;
2020/05/14 04:21:26;;;;;;;24.9;20.4;;;;;;;7.26;100;94752.64;;;;
2020/05/14 04:22:26;;;;;;;24.9;20.4;;;;;;;7.26;100;94752.64;;;;
2020/05/14 04:23:26;;;;;;;24.9;20.4;;;;;;;7.26;100;94752.64;;;;
2020/05/14 04:24:28;;;;;;;24.9;20.4;;;;;;;7.26;100;94752.64;;;;
2020/05/14 04:25:28;;;;;;;24.9;20.4;;;;;;;7.26;100;94752.64;;;;
2020/05/14 04:26:28;;;;;;;24.9;20.4;;;;;;;7.26;100;94752.64;;;;
2020/05/14 04:27:29;;;;;;;24.9;20.4;;;;;;;7.26;100;94752.64;;;;
2020/05/14 04:28:29;;;;;;;22.65;19.15;;;;;;;7.3;100;94773.02;;;;
2020/05/14 04:29:30;;;;;;;22.65;19.15;;;;;;;7.3;100;94773.02;;;;
2020/05/14 04:30:31;;;;;;;22.65;19.15;;;;;;;7.3;100;94773.02;;;;
2020/05/14 04:31:31;;;;;;;22.65;19.15;;;;;;;7.3;100;94773.02;;;;
2020/05/14 04:32:32;;;;;;;22.65;19.15;;;;;;;7.3;100;94773.02;;;;
2020/05/14 04:33:32;;;;;;;22.65;19.15;;;;;;;7.3;100;94773.02;;;;
2020/05/14 04:34:33;;;;;;;22.65;19.15;;;;;;;7.3;100;94773.02;;;;
2020/05/14 04:35:33;;;;;;;22.65;19.15;;;;;;;7.3;100;94773.02;;;;
2020/05/14 04:36:34;;;;;;;22.65;19.15;;;;;;;7.3;100;94773.02;;;;
2020/05/14 04:37:34;;;;;;;22.65;19.15;;;;;;;7.3;100;94773.02;;;;
2020/05/14 04:38:34;;;;;;;24.6;19.45;;;;;;;7.3;100;94787.78;;;;
2020/05/14 04:39:35;;;;;;;24.6;19.45;;;;;;;7.3;100;94787.78;;;;
2020/05/14 04:40:35;;;;;;;24.6;19.45;;;;;;;7.3;100;94787.78;;;;
2020/05/14 04:41:36;;;;;;;24.6;19.45;;;;;;;7.3;100;94787.78;;;;
2020/05/14 04:42:36;;;;;;;24.6;19.45;;;;;;;7.3;100;94787.78;;;;
2020/05/14 04:43:37;;;;;;;24.6;19.45;;;;;;;7.3;100;94787.78;;;;
2020/05/14 04:44:37;;;;;;;24.6;19.45;;;;;;;7.3;100;94787.78;;;;
2020/05/14 04:45:38;;;;;;;24.6;19.45;;;;;;;7.3;100;94787.78;;;;
2020/05/14 04:46:38;;;;;;;24.6;19.45;;;;;;;7.3;100;94787.78;;;;
2020/05/14 04:47:39;;;;;;;24.6;19.45;;;;;;;7.3;100;94787.78;;;;
2020/05/14 04:48:39;;;;;;;24.6;19.45;;;;;;;7.3;100;94787.78;;;;
2020/05/14 04:49:40;;;;;;;21.8;18.55;;;;;;;7.41;100;94803.26;;;;
2020/05/14 04:50:40;;;;;;;21.8;18.55;;;;;;;7.41;100;94803.26;;;;
2020/05/14 04:51:41;;;;;;;21.8;18.55;;;;;;;7.41;100;94803.26;;;;
2020/05/14 04:52:41;;;;;;;21.8;18.55;;;;;;;7.41;100;94803.26;;;;
2020/05/14 04:53:41;;;;;;;21.8;18.55;;;;;;;7.41;100;94803.26;;;;
2020/05/14 04:54:42;;;;;;;21.8;18.55;;;;;;;7.41;100;94803.26;;;;
2020/05/14 04:55:42;;;;;;;21.8;18.55;;;;;;;7.41;100;94803.26;;;;
2020/05/14 04:56:43;;;;;;;21.8;18.55;;;;;;;7.41;100;94803.26;;;;
2020/05/14 04:57:43;;;;;;;21.8;18.55;;;;;;;7.41;100;94803.26;;;;
2020/05/14 04:58:44;;;;;;;21.8;18.55;;;;;;;7.41;100;94803.26;;;;
2020/05/14 04:59:45;;;;;;;21.6;18.8;;;;;;;7.45;100;94812.88;;;;
2020/05/14 05:04:22;;;;;;;21.6;18.8;;;;;;;7.45;100;94812.88;;;;
2020/05/14 05:05:45;;;;;;;21.6;18.8;;;;;;;7.45;100;94812.88;;;;
2020/05/14 05:06:51;;;;;;;21.6;18.8;;;;;;;7.45;100;94812.88;;;;
2020/05/14 05:16:26;;;;;;;18.9;16.85;;;;;;;7.59;100;94823.74;;;;
2020/05/14 05:17:34;;;;;;;18.9;16.85;;;;;;;7.59;100;94823.74;;;;
2020/05/14 05:18:39;;;;;;;18.9;16.85;;;;;;;7.59;100;94823.74;;;;
2020/05/14 05:19:40;;;;;;;18.9;16.85;;;;;;;7.59;100;94823.74;;;;
2020/05/14 05:24:02;;;;;;;23.5;19.05;;;;;;;7.63;100;94823.58;;;;
2020/05/14 05:25:03;;;;;;;23.5;19.05;;;;;;;7.63;100;94823.58;;;;
2020/05/14 05:26:03;;;;;;;23.5;19.05;;;;;;;7.63;100;94823.58;;;;
2020/05/14 05:27:04;;;;;;;23.5;19.05;;;;;;;7.63;100;94823.58;;;;
2020/05/14 05:28:04;;;;;;;23.5;19.05;;;;;;;7.63;100;94823.58;;;;
2020/05/14 05:29:05;;;;;;;23.5;19.05;;;;;;;7.63;100;94823.58;;;;
2020/05/14 05:30:05;;;;;;;23.5;19.05;;;;;;;7.63;100;94823.58;;;;
2020/05/14 05:31:06;;;;;;;23.5;19.05;;;;;;;7.63;100;94823.58;;;;
2020/05/14 05:32:07;;;;;;;21.75;18.75;;;;;;;7.74;100;94849.67;;;;
2020/05/14 05:33:07;;;;;;;21.75;18.75;;;;;;;7.74;100;94849.67;;;;
2020/05/14 05:34:08;;;;;;;21.75;18.75;;;;;;;7.74;100;94849.67;;;;
2020/05/14 05:35:08;;;;;;;21.75;18.75;;;;;;;7.74;100;94849.67;;;;
2020/05/14 05:36:08;;;;;;;21.75;18.75;;;;;;;7.74;100;94849.67;;;;
2020/05/14 05:37:09;;;;;;;21.75;18.75;;;;;;;7.74;100;94849.67;;;;
2020/05/14 05:38:09;;;;;;;21.75;18.75;;;;;;;7.74;100;94849.67;;;;
2020/05/14 05:39:10;;;;;;;21.75;18.75;;;;;;;7.74;100;94849.67;;;;
2020/05/14 05:40:10;;;;;;;21.75;18.75;;;;;;;7.74;100;94849.67;;;;
2020/05/14 05:41:11;;;;;;;21.75;18.75;;;;;;;7.74;100;94849.67;;;;
2020/05/14 05:42:11;;;;;;;21.05;17.85;;;;;;;7.76;100;94839.93;;;;
2020/05/14 05:43:12;;;;;;;21.05;17.85;;;;;;;7.76;100;94839.93;;;;
2020/05/14 05:44:12;;;;;;;21.05;17.85;;;;;;;7.76;100;94839.93;;;;
2020/05/14 05:45:13;;;;;;;21.05;17.85;;;;;;;7.76;100;94839.93;;;;
2020/05/14 05:46:13;;;;;;;21.05;17.85;;;;;;;7.76;100;94839.93;;;;
2020/05/14 05:47:14;;;;;;;21.05;17.85;;;;;;;7.76;100;94839.93;;;;
2020/05/14 05:48:14;;;;;;;21.05;17.85;;;;;;;7.76;100;94839.93;;;;
2020/05/14 05:49:15;;;;;;;21.05;17.85;;;;;;;7.76;100;94839.93;;;;
2020/05/14 05:50:15;;;;;;;21.05;17.85;;;;;;;7.76;100;94839.93;;;;
2020/05/14 05:51:15;;;;;;;21.05;17.85;;;;;;;7.76;100;94839.93;;;;
2020/05/14 05:52:16;;;;;;;21.05;17.85;;;;;;;7.76;100;94839.93;;;;
2020/05/14 05:53:16;;;;;;;25.05;21.25;;;;;;;7.91;100;94848.91;;;;
2020/05/14 05:54:17;;;;;;;25.05;21.25;;;;;;;7.91;100;94848.91;;;;
2020/05/14 05:55:18;;;;;;;25.05;21.25;;;;;;;7.91;100;94848.91;;;;
2020/05/14 05:56:18;;;;;;;25.05;21.25;;;;;;;7.91;100;94848.91;;;;
2020/05/14 05:57:19;;;;;;;25.05;21.25;;;;;;;7.91;100;94848.91;;;;
2020/05/14 05:58:19;;;;;;;25.05;21.25;;;;;;;7.91;100;94848.91;;;;
2020/05/14 05:59:20;;;;;;;25.05;21.25;;;;;;;7.91;100;94848.91;;;;
2020/05/14 06:00:20;;;;;;;25.05;21.25;;;;;;;7.91;100;94848.91;;;;
2020/05/14 06:01:21;;;;;;;25.05;21.25;;;;;;;7.91;100;94848.91;;;;
2020/05/14 06:02:21;;;;;;;25.05;21.25;;;;;;;7.91;100;94848.91;;;;
2020/05/14 06:03:22;;;;;;;26.1;21.5;;;;;;;8.1;100;94841.46;;;;
2020/05/14 06:04:22;;;;;;;26.1;21.5;;;;;;;8.1;100;94841.46;;;;
2020/05/14 06:05:23;;;;;;;26.1;21.5;;;;;;;8.1;100;94841.46;;;;
2020/05/14 06:12:07;;;;;;;26.1;21.5;;;;;;;8.1;100;94841.46;;;;
2020/05/14 06:15:34;;;;;;;26.6;21.95;;;;;;;8.29;100;94865.89;;;;
2020/05/14 06:19:14;;;;;;;26.6;21.95;;;;;;;8.29;100;94865.89;;;;
2020/05/14 06:38:48;;;;;;;19.25;17.2;;;;;;;8.59;100;94876.98;;;;
2020/05/14 06:45:19;;;;;;;19.25;17.2;;;;;;;8.59;100;94876.98;;;;
2020/05/14 06:54:40;;;;;;;17.3;15.5;;;;;;;8.75;100;94869.65;;;;
2020/05/14 07:09:06;;;;;;;12.4;11.1;;;;;;;9.55;100;94911.83;;;;
2020/05/14 07:10:15;;;;;;;12.4;11.1;;;;;;;9.55;100;94911.83;;;;
2020/05/14 07:11:22;;;;;;;12.4;11.1;;;;;;;9.55;100;94911.83;;;;
2020/05/14 07:13:35;;;;;;;12.4;11.1;;;;;;;9.55;100;94911.83;;;;
2020/05/14 07:15:14;;;;;;;12.4;11.1;;;;;;;9.55;100;94911.83;;;;
2020/05/14 07:16:21;;;;;;;12.4;11.1;;;;;;;9.55;100;94911.83;;;;
2020/05/14 07:22:28;;;;;;;11.05;9.950002;;;;;;;9.45;100;94909.33;;;;
2020/05/14 07:23:29;;;;;;;11.05;9.950002;;;;;;;9.45;100;94909.33;;;;
2020/05/14 07:24:30;;;;;;;11.05;9.950002;;;;;;;9.45;100;94909.33;;;;
2020/05/14 07:25:30;;;;;;;11.05;9.950002;;;;;;;9.45;100;94909.33;;;;
2020/05/14 07:26:31;;;;;;;11.05;9.950002;;;;;;;9.45;100;94909.33;;;;
2020/05/14 07:27:31;;;;;;;11.05;9.950002;;;;;;;9.45;100;94909.33;;;;
2020/05/14 07:28:32;;;;;;;12.45;11.15;;;;;;;9.74;100;94903.03;;;;
2020/05/14 07:29:33;;;;;;;12.45;11.15;;;;;;;9.74;100;94903.03;;;;
2020/05/14 07:30:34;;;;;;;12.45;11.15;;;;;;;9.74;100;94903.03;;;;
2020/05/14 07:31:34;;;;;;;12.45;11.15;;;;;;;9.74;100;94903.03;;;;
2020/05/14 07:32:35;;;;;;;12.45;11.15;;;;;;;9.74;100;94903.03;;;;
2020/05/14 07:33:35;;;;;;;12.45;11.15;;;;;;;9.74;100;94903.03;;;;
2020/05/14 07:34:35;;;;;;;12.45;11.15;;;;;;;9.74;100;94903.03;;;;
2020/05/14 07:35:36;;;;;;;12.45;11.15;;;;;;;9.74;100;94903.03;;;;
2020/05/14 07:36:37;;;;;;;12.45;11.15;;;;;;;9.74;100;94903.03;;;;
2020/05/14 07:37:38;;;;;;;12.45;11.15;;;;;;;9.74;100;94903.03;;;;
2020/05/14 07:38:38;;;;;;;12.45;11.15;;;;;;;9.74;100;94903.03;;;;
2020/05/14 07:39:39;;;;;;;10.25;9.249999;;;;;;;10.6;99.70508;94919.75;;;;
2020/05/14 07:40:39;;;;;;;10.25;9.249999;;;;;;;10.6;99.70508;94919.75;;;;
2020/05/14 07:41:40;;;;;;;10.25;9.249999;;;;;;;10.6;99.70508;94919.75;;;;
2020/05/14 07:42:41;;;;;;;10.25;9.249999;;;;;;;10.6;99.70508;94919.75;;;;
2020/05/14 07:43:41;;;;;;;10.25;9.249999;;;;;;;10.6;99.70508;94919.75;;;;
2020/05/14 07:44:42;;;;;;;10.25;9.249999;;;;;;;10.6;99.70508;94919.75;;;;
2020/05/14 07:50:53;;;;;;;8.549999;7.750001;;;;;;;10.77;99.11621;94935.02;;;;
2020/05/14 07:51:53;;;;;;;8.549999;7.750001;;;;;;;10.77;99.11621;94935.02;;;;
2020/05/14 07:52:54;;;;;;;8.549999;7.750001;;;;;;;10.77;99.11621;94935.02;;;;
2020/05/14 07:53:55;;;;;;;8.549999;7.750001;;;;;;;10.77;99.11621;94935.02;;;;
2020/05/14 07:54:55;;;;;;;8.549999;7.750001;;;;;;;10.77;99.11621;94935.02;;;;
2020/05/14 07:55:56;;;;;;;8.549999;7.750001;;;;;;;10.77;99.11621;94935.02;;;;
2020/05/14 07:56:56;;;;;;;8.549999;7.750001;;;;;;;10.77;99.11621;94935.02;;;;
2020/05/14 07:57:56;;;;;;;8.549999;7.750001;;;;;;;10.77;99.11621;94935.02;;;;
2020/05/14 07:58:57;;;;;;;8.549999;7.750001;;;;;;;10.77;99.11621;94935.02;;;;
2020/05/14 07:59:57;;;;;;;8.199999;7.05;;;;;;;10.88;99.05664;94912.94;;;;
2020/05/14 08:00:58;;;;;;;8.199999;7.05;;;;;;;10.88;99.05664;94912.94;;;;